sensor_id;sensor_type;location;lat;lon;timestamp;pressure;altitude;pressure_sealevel;temperature;humidity
48156;BME280;35568;48.104;11.782;2023-04-25T00:01:02;94784.71;;;6.17;52.01
48156;BME280;35568;48.104;11.782;2023-04-25T00:03:29;94784.36;;;6.41;51.89
48156;BME280;35568;48.104;11.782;2023-04-25T00:05:56;94785.92;;;6.44;51.86
48156;BME280;35568;48.104;11.782;2023-04-25T00:08:23;94785.26;;;6.35;51.87
48156;BME280;35568;48.104;11.782;2023-04-25T00:10:50;94781.74;;;6.40;51.83
48156;BME280;35568;48.104;11.782;2023-04-25T00:13:17;94778.72;;;6.70;51.68
48156;BME280;35568;48.104;11.782;2023-04-25T00:15:44;94772.41;;;6.67;51.54
48156;BME280;35568;48.104;11.782;2023-04-25T00:18:10;94770.31;;;6.49;52.08
48156;BME280;35568;48.104;11.782;2023-04-25T00:20:37;94771.19;;;6.81;51.20
48156;BME280;35568;48.104;11.782;2023-04-25T00:23:05;94768.33;;;6.96;51.18
48156;BME280;35568;48.104;11.782;2023-04-25T00:25:32;94763.66;;;6.60;51.20
48156;BME280;35568;48.104;11.782;2023-04-25T00:27:59;94764.99;;;6.75;51.29
48156;BME280;35568;48.104;11.782;2023-04-25T00:30:26;94770.72;;;7.05;51.14
48156;BME280;35568;48.104;11.782;2023-04-25T00:32:52;94779.67;;;6.63;51.41
48156;BME280;35568;48.104;11.782;2023-04-25T00:35:19;94780.73;;;6.80;51.60
48156;BME280;35568;48.104;11.782;2023-04-25T00:37:46;94776.14;;;6.83;51.81
48156;BME280;35568;48.104;11.782;2023-04-25T00:40:13;94777.77;;;6.82;51.36
48156;BME280;35568;48.104;11.782;2023-04-25T00:42:40;94782.19;;;7.00;51.31
48156;BME280;35568;48.104;11.782;2023-04-25T00:45:09;94785.76;;;6.91;51.52
48156;BME280;35568;48.104;11.782;2023-04-25T00:47:39;94783.01;;;6.87;51.28
48156;BME280;35568;48.104;11.782;2023-04-25T00:50:09;94780.78;;;6.68;51.56
48156;BME280;35568;48.104;11.782;2023-04-25T00:52:38;94778.18;;;6.73;51.30
48156;BME280;35568;48.104;11.782;2023-04-25T00:55:06;94776.37;;;7.12;51.01
48156;BME280;35568;48.104;11.782;2023-04-25T00:57:33;94778.42;;;6.78;50.98
48156;BME280;35568;48.104;11.782;2023-04-25T01:00:02;94769.66;;;7.07;51.05
48156;BME280;35568;48.104;11.782;2023-04-25T01:02:29;94769.63;;;6.86;50.95
48156;BME280;35568;48.104;11.782;2023-04-25T01:04:56;94769.03;;;7.03;50.84
48156;BME280;35568;48.104;11.782;2023-04-25T01:07:24;94769.52;;;7.13;50.81
48156;BME280;35568;48.104;11.782;2023-04-25T01:09:52;94764.63;;;7.00;50.68
48156;BME280;35568;48.104;11.782;2023-04-25T01:12:18;94760.80;;;7.10;50.76
48156;BME280;35568;48.104;11.782;2023-04-25T01:14:45;94763.56;;;7.39;50.74
48156;BME280;35568;48.104;11.782;2023-04-25T01:17:13;94767.88;;;7.38;50.53
48156;BME280;35568;48.104;11.782;2023-04-25T01:19:40;94766.24;;;7.06;50.53
48156;BME280;35568;48.104;11.782;2023-04-25T01:22:07;94763.87;;;7.34;50.45
48156;BME280;35568;48.104;11.782;2023-04-25T01:24:34;94763.76;;;7.11;50.35
48156;BME280;35568;48.104;11.782;2023-04-25T01:27:02;94763.09;;;7.32;50.47
48156;BME280;35568;48.104;11.782;2023-04-25T01:29:29;94759.46;;;7.39;50.32
48156;BME280;35568;48.104;11.782;2023-04-25T01:31:58;94761.27;;;7.26;50.34
48156;BME280;35568;48.104;11.782;2023-04-25T01:34:25;94756.94;;;7.38;49.85
48156;BME280;35568;48.104;11.782;2023-04-25T01:36:53;94754.91;;;7.60;49.91
48156;BME280;35568;48.104;11.782;2023-04-25T01:39:20;94753.41;;;7.12;50.09
48156;BME280;35568;48.104;11.782;2023-04-25T01:41:48;94754.94;;;7.23;49.96
48156;BME280;35568;48.104;11.782;2023-04-25T01:45:27;94751.66;;;7.36;49.94
48156;BME280;35568;48.104;11.782;2023-04-25T01:47:54;94753.53;;;7.43;50.22
48156;BME280;35568;48.104;11.782;2023-04-25T01:50:22;94754.66;;;7.39;50.05
48156;BME280;35568;48.104;11.782;2023-04-25T01:52:49;94751.53;;;7.32;50.35
48156;BME280;35568;48.104;11.782;2023-04-25T01:55:17;94748.93;;;6.99;50.71
48156;BME280;35568;48.104;11.782;2023-04-25T01:57:44;94746.89;;;7.22;50.64
48156;BME280;35568;48.104;11.782;2023-04-25T02:00:12;94748.51;;;7.17;50.67
48156;BME280;35568;48.104;11.782;2023-04-25T02:02:40;94748.07;;;7.30;50.85
48156;BME280;35568;48.104;11.782;2023-04-25T02:05:07;94747.87;;;7.27;50.75
48156;BME280;35568;48.104;11.782;2023-04-25T02:07:34;94747.77;;;7.17;50.69
48156;BME280;35568;48.104;11.782;2023-04-25T02:10:01;94747.59;;;6.70;50.75
48156;BME280;35568;48.104;11.782;2023-04-25T02:12:28;94744.82;;;6.72;50.67
48156;BME280;35568;48.104;11.782;2023-04-25T02:14:55;94741.83;;;6.60;50.91
48156;BME280;35568;48.104;11.782;2023-04-25T02:17:21;94744.12;;;6.66;50.68
48156;BME280;35568;48.104;11.782;2023-04-25T02:19:49;94743.48;;;6.35;51.04
48156;BME280;35568;48.104;11.782;2023-04-25T02:22:16;94745.20;;;6.75;50.52
48156;BME280;35568;48.104;11.782;2023-04-25T02:24:43;94740.00;;;6.90;50.44
48156;BME280;35568;48.104;11.782;2023-04-25T02:27:10;94742.55;;;6.75;50.65
48156;BME280;35568;48.104;11.782;2023-04-25T02:29:37;94746.79;;;6.61;50.87
48156;BME280;35568;48.104;11.782;2023-04-25T02:32:04;94747.63;;;6.43;50.87
48156;BME280;35568;48.104;11.782;2023-04-25T02:34:31;94747.26;;;6.36;50.87
48156;BME280;35568;48.104;11.782;2023-04-25T02:36:58;94742.56;;;6.42;50.99
48156;BME280;35568;48.104;11.782;2023-04-25T02:39:25;94736.75;;;6.33;51.26
48156;BME280;35568;48.104;11.782;2023-04-25T02:41:52;94736.45;;;6.45;51.20
48156;BME280;35568;48.104;11.782;2023-04-25T02:44:19;94734.00;;;6.35;51.26
48156;BME280;35568;48.104;11.782;2023-04-25T02:46:46;94733.59;;;6.26;51.26
48156;BME280;35568;48.104;11.782;2023-04-25T02:49:12;94732.73;;;5.95;51.17
48156;BME280;35568;48.104;11.782;2023-04-25T02:51:39;94729.96;;;6.30;51.21
48156;BME280;35568;48.104;11.782;2023-04-25T02:54:06;94726.83;;;6.32;51.19
48156;BME280;35568;48.104;11.782;2023-04-25T02:56:33;94728.18;;;6.46;50.93
48156;BME280;35568;48.104;11.782;2023-04-25T02:59:00;94731.90;;;6.08;50.96
48156;BME280;35568;48.104;11.782;2023-04-25T03:03:00;94729.26;;;6.76;50.18
48156;BME280;35568;48.104;11.782;2023-04-25T03:05:27;94724.90;;;6.69;50.13
48156;BME280;35568;48.104;11.782;2023-04-25T03:07:54;94721.09;;;6.83;50.02
48156;BME280;35568;48.104;11.782;2023-04-25T03:10:21;94722.98;;;6.54;50.01
48156;BME280;35568;48.104;11.782;2023-04-25T03:12:48;94721.85;;;6.74;50.01
48156;BME280;35568;48.104;11.782;2023-04-25T03:15:15;94724.60;;;6.79;50.10
48156;BME280;35568;48.104;11.782;2023-04-25T03:17:41;94728.43;;;6.66;50.29
48156;BME280;35568;48.104;11.782;2023-04-25T03:20:10;94731.82;;;6.42;50.19
48156;BME280;35568;48.104;11.782;2023-04-25T03:22:37;94728.81;;;6.87;50.02
48156;BME280;35568;48.104;11.782;2023-04-25T03:25:05;94731.50;;;6.45;50.04
48156;BME280;35568;48.104;11.782;2023-04-25T03:27:32;94731.17;;;6.62;50.28
48156;BME280;35568;48.104;11.782;2023-04-25T03:29:59;94731.06;;;5.90;50.59
48156;BME280;35568;48.104;11.782;2023-04-25T03:32:26;94736.55;;;6.42;50.60
48156;BME280;35568;48.104;11.782;2023-04-25T03:34:53;94735.21;;;6.25;50.96
48156;BME280;35568;48.104;11.782;2023-04-25T03:37:20;94734.67;;;6.07;51.47
48156;BME280;35568;48.104;11.782;2023-04-25T03:39:47;94729.58;;;6.28;51.34
48156;BME280;35568;48.104;11.782;2023-04-25T03:42:14;94731.44;;;6.08;51.99
48156;BME280;35568;48.104;11.782;2023-04-25T03:44:40;94733.06;;;5.84;52.58
48156;BME280;35568;48.104;11.782;2023-04-25T03:47:07;94720.55;;;5.98;52.00
48156;BME280;35568;48.104;11.782;2023-04-25T03:49:35;94728.52;;;6.31;52.10
48156;BME280;35568;48.104;11.782;2023-04-25T03:52:02;94727.60;;;5.79;51.61
48156;BME280;35568;48.104;11.782;2023-04-25T03:54:29;94720.05;;;5.98;51.47
48156;BME280;35568;48.104;11.782;2023-04-25T03:56:56;94716.97;;;5.87;51.50
48156;BME280;35568;48.104;11.782;2023-04-25T03:59:23;94729.07;;;6.22;51.14
48156;BME280;35568;48.104;11.782;2023-04-25T04:01:50;94727.64;;;6.15;51.60
48156;BME280;35568;48.104;11.782;2023-04-25T04:04:17;94725.50;;;6.07;51.41
48156;BME280;35568;48.104;11.782;2023-04-25T04:06:44;94721.70;;;6.01;51.61
48156;BME280;35568;48.104;11.782;2023-04-25T04:09:11;94721.19;;;6.13;51.46
48156;BME280;35568;48.104;11.782;2023-04-25T04:11:37;94723.86;;;5.58;51.70
48156;BME280;35568;48.104;11.782;2023-04-25T04:14:04;94724.93;;;5.77;52.14
48156;BME280;35568;48.104;11.782;2023-04-25T04:16:31;94721.70;;;6.15;52.01
48156;BME280;35568;48.104;11.782;2023-04-25T04:18:58;94723.49;;;5.88;52.36
48156;BME280;35568;48.104;11.782;2023-04-25T04:21:25;94725.13;;;5.59;53.04
48156;BME280;35568;48.104;11.782;2023-04-25T04:23:52;94724.24;;;5.71;52.94
48156;BME280;35568;48.104;11.782;2023-04-25T04:26:19;94723.38;;;5.57;53.02
48156;BME280;35568;48.104;11.782;2023-04-25T04:28:45;94718.00;;;5.73;52.65
48156;BME280;35568;48.104;11.782;2023-04-25T04:31:12;94714.30;;;5.97;52.85
48156;BME280;35568;48.104;11.782;2023-04-25T04:33:39;94715.06;;;6.36;52.27
48156;BME280;35568;48.104;11.782;2023-04-25T04:36:06;94713.29;;;6.39;52.08
48156;BME280;35568;48.104;11.782;2023-04-25T04:38:34;94711.70;;;6.32;52.29
48156;BME280;35568;48.104;11.782;2023-04-25T04:41:01;94711.96;;;6.34;51.95
48156;BME280;35568;48.104;11.782;2023-04-25T04:43:27;94715.18;;;6.51;51.79
48156;BME280;35568;48.104;11.782;2023-04-25T04:45:54;94717.01;;;6.09;51.89
48156;BME280;35568;48.104;11.782;2023-04-25T04:48:21;94719.81;;;6.16;52.16
48156;BME280;35568;48.104;11.782;2023-04-25T04:50:48;94726.66;;;6.38;51.95
48156;BME280;35568;48.104;11.782;2023-04-25T04:53:15;94726.82;;;6.16;52.33
48156;BME280;35568;48.104;11.782;2023-04-25T04:55:42;94737.49;;;6.25;51.81
48156;BME280;35568;48.104;11.782;2023-04-25T04:58:09;94741.12;;;6.31;51.41
48156;BME280;35568;48.104;11.782;2023-04-25T05:00:35;94740.20;;;5.71;51.93
48156;BME280;35568;48.104;11.782;2023-04-25T05:03:03;94736.46;;;5.05;52.06
48156;BME280;35568;48.104;11.782;2023-04-25T05:05:30;94735.48;;;6.76;51.47
48156;BME280;35568;48.104;11.782;2023-04-25T05:07:57;94728.24;;;6.35;51.49
48156;BME280;35568;48.104;11.782;2023-04-25T05:10:26;94720.75;;;6.49;51.50
48156;BME280;35568;48.104;11.782;2023-04-25T05:12:52;94713.82;;;6.04;51.73
48156;BME280;35568;48.104;11.782;2023-04-25T05:15:19;94713.50;;;6.36;51.62
48156;BME280;35568;48.104;11.782;2023-04-25T05:17:46;94704.82;;;6.09;51.26
48156;BME280;35568;48.104;11.782;2023-04-25T05:20:13;94705.13;;;6.50;51.50
48156;BME280;35568;48.104;11.782;2023-04-25T05:22:40;94705.21;;;6.51;51.32
48156;BME280;35568;48.104;11.782;2023-04-25T05:25:08;94709.84;;;6.73;51.17
48156;BME280;35568;48.104;11.782;2023-04-25T05:27:35;94710.29;;;6.39;51.80
48156;BME280;35568;48.104;11.782;2023-04-25T05:30:03;94712.83;;;6.81;51.82
48156;BME280;35568;48.104;11.782;2023-04-25T05:32:30;94712.39;;;6.88;51.72
48156;BME280;35568;48.104;11.782;2023-04-25T05:34:58;94712.64;;;6.59;51.80
48156;BME280;35568;48.104;11.782;2023-04-25T05:37:24;94706.33;;;6.13;52.85
48156;BME280;35568;48.104;11.782;2023-04-25T05:39:51;94703.28;;;6.51;52.52
48156;BME280;35568;48.104;11.782;2023-04-25T05:42:18;94703.16;;;6.56;52.68
48156;BME280;35568;48.104;11.782;2023-04-25T05:44:45;94703.77;;;6.93;52.76
48156;BME280;35568;48.104;11.782;2023-04-25T05:47:12;94707.47;;;7.11;52.30
48156;BME280;35568;48.104;11.782;2023-04-25T05:49:39;94706.87;;;7.10;52.10
48156;BME280;35568;48.104;11.782;2023-04-25T05:52:06;94708.44;;;6.80;52.59
48156;BME280;35568;48.104;11.782;2023-04-25T05:54:33;94711.19;;;6.78;51.86
48156;BME280;35568;48.104;11.782;2023-04-25T05:57:00;94707.51;;;6.60;52.88
48156;BME280;35568;48.104;11.782;2023-04-25T05:59:26;94704.48;;;6.52;53.02
48156;BME280;35568;48.104;11.782;2023-04-25T06:01:53;94708.41;;;6.70;52.77
48156;BME280;35568;48.104;11.782;2023-04-25T06:04:20;94714.72;;;6.85;52.86
48156;BME280;35568;48.104;11.782;2023-04-25T06:06:47;94713.72;;;6.88;52.03
48156;BME280;35568;48.104;11.782;2023-04-25T06:09:14;94713.42;;;7.05;51.80
48156;BME280;35568;48.104;11.782;2023-04-25T06:11:41;94711.18;;;7.44;51.46
48156;BME280;35568;48.104;11.782;2023-04-25T06:14:08;94720.56;;;7.22;51.41
48156;BME280;35568;48.104;11.782;2023-04-25T06:16:35;94724.68;;;7.41;51.44
48156;BME280;35568;48.104;11.782;2023-04-25T06:19:01;94722.97;;;7.49;50.48
48156;BME280;35568;48.104;11.782;2023-04-25T06:21:28;94720.31;;;7.37;50.69
48156;BME280;35568;48.104;11.782;2023-04-25T06:23:55;94720.94;;;7.74;51.03
48156;BME280;35568;48.104;11.782;2023-04-25T06:26:24;94711.86;;;7.99;51.16
48156;BME280;35568;48.104;11.782;2023-04-25T06:28:50;94718.48;;;7.69;50.10
48156;BME280;35568;48.104;11.782;2023-04-25T06:31:17;94723.76;;;7.47;49.72
48156;BME280;35568;48.104;11.782;2023-04-25T06:33:44;94729.55;;;7.25;51.23
48156;BME280;35568;48.104;11.782;2023-04-25T06:36:11;94728.02;;;6.83;51.29
48156;BME280;35568;48.104;11.782;2023-04-25T06:38:38;94722.38;;;6.83;51.66
48156;BME280;35568;48.104;11.782;2023-04-25T06:41:05;94720.80;;;7.12;51.50
48156;BME280;35568;48.104;11.782;2023-04-25T06:43:31;94712.06;;;7.26;51.40
48156;BME280;35568;48.104;11.782;2023-04-25T06:45:58;94711.04;;;6.88;50.80
48156;BME280;35568;48.104;11.782;2023-04-25T06:48:26;94715.01;;;6.97;51.99
48156;BME280;35568;48.104;11.782;2023-04-25T06:50:53;94715.84;;;6.72;51.45
48156;BME280;35568;48.104;11.782;2023-04-25T06:53:21;94716.99;;;7.02;51.69
48156;BME280;35568;48.104;11.782;2023-04-25T06:55:47;94717.98;;;6.92;51.93
48156;BME280;35568;48.104;11.782;2023-04-25T06:58:14;94716.60;;;7.04;52.14
48156;BME280;35568;48.104;11.782;2023-04-25T07:00:41;94715.66;;;7.08;52.09
48156;BME280;35568;48.104;11.782;2023-04-25T07:03:08;94715.84;;;7.00;51.57
48156;BME280;35568;48.104;11.782;2023-04-25T07:05:35;94716.91;;;7.52;52.00
48156;BME280;35568;48.104;11.782;2023-04-25T07:08:02;94718.15;;;7.74;51.13
48156;BME280;35568;48.104;11.782;2023-04-25T07:10:29;94716.02;;;7.68;51.23
48156;BME280;35568;48.104;11.782;2023-04-25T07:12:56;94715.24;;;8.16;50.40
48156;BME280;35568;48.104;11.782;2023-04-25T07:15:23;94716.09;;;9.14;49.00
48156;BME280;35568;48.104;11.782;2023-04-25T07:17:50;94718.93;;;9.41;48.51
48156;BME280;35568;48.104;11.782;2023-04-25T07:20:17;94718.80;;;9.87;47.79
48156;BME280;35568;48.104;11.782;2023-04-25T07:22:44;94718.73;;;9.45;47.26
48156;BME280;35568;48.104;11.782;2023-04-25T07:25:11;94717.73;;;9.19;46.56
48156;BME280;35568;48.104;11.782;2023-04-25T07:27:38;94715.34;;;9.59;46.83
48156;BME280;35568;48.104;11.782;2023-04-25T07:30:06;94715.70;;;8.30;46.26
48156;BME280;35568;48.104;11.782;2023-04-25T07:32:34;94715.41;;;8.84;46.91
48156;BME280;35568;48.104;11.782;2023-04-25T07:35:00;94706.71;;;9.16;47.13
48156;BME280;35568;48.104;11.782;2023-04-25T07:37:27;94701.76;;;9.52;46.36
48156;BME280;35568;48.104;11.782;2023-04-25T07:39:54;94705.83;;;9.59;46.88
48156;BME280;35568;48.104;11.782;2023-04-25T07:42:21;94713.79;;;9.70;45.46
48156;BME280;35568;48.104;11.782;2023-04-25T07:44:48;94710.29;;;9.65;46.27
48156;BME280;35568;48.104;11.782;2023-04-25T07:47:14;94713.58;;;9.77;45.41
48156;BME280;35568;48.104;11.782;2023-04-25T07:49:41;94709.38;;;9.92;44.75
48156;BME280;35568;48.104;11.782;2023-04-25T07:52:08;94714.44;;;9.66;44.69
48156;BME280;35568;48.104;11.782;2023-04-25T07:54:35;94711.77;;;10.00;44.82
48156;BME280;35568;48.104;11.782;2023-04-25T07:57:02;94709.45;;;10.33;43.83
48156;BME280;35568;48.104;11.782;2023-04-25T07:59:29;94703.50;;;11.10;43.47
48156;BME280;35568;48.104;11.782;2023-04-25T08:01:55;94706.34;;;11.24;41.47
48156;BME280;35568;48.104;11.782;2023-04-25T08:04:22;94709.96;;;12.03;42.36
48156;BME280;35568;48.104;11.782;2023-04-25T08:06:49;94714.75;;;12.11;39.82
48156;BME280;35568;48.104;11.782;2023-04-25T08:09:16;94715.30;;;11.62;40.63
48156;BME280;35568;48.104;11.782;2023-04-25T08:11:43;94705.51;;;11.80;39.99
48156;BME280;35568;48.104;11.782;2023-04-25T08:14:10;94710.54;;;12.20;40.49
48156;BME280;35568;48.104;11.782;2023-04-25T08:16:37;94710.66;;;12.34;38.34
48156;BME280;35568;48.104;11.782;2023-04-25T08:19:04;94715.62;;;12.21;38.93
48156;BME280;35568;48.104;11.782;2023-04-25T08:21:31;94713.43;;;12.42;39.34
48156;BME280;35568;48.104;11.782;2023-04-25T08:23:58;94708.24;;;12.71;38.08
48156;BME280;35568;48.104;11.782;2023-04-25T08:26:25;94701.83;;;13.39;37.34
48156;BME280;35568;48.104;11.782;2023-04-25T08:28:52;94702.18;;;13.11;37.65
48156;BME280;35568;48.104;11.782;2023-04-25T08:31:19;94699.38;;;13.24;37.33
48156;BME280;35568;48.104;11.782;2023-04-25T08:33:46;94702.02;;;14.00;37.32
48156;BME280;35568;48.104;11.782;2023-04-25T08:36:13;94700.81;;;14.45;34.81
48156;BME280;35568;48.104;11.782;2023-04-25T08:38:40;94698.48;;;14.64;34.47
48156;BME280;35568;48.104;11.782;2023-04-25T08:41:07;94702.70;;;14.13;34.88
48156;BME280;35568;48.104;11.782;2023-04-25T08:43:35;94705.39;;;14.11;36.43
48156;BME280;35568;48.104;11.782;2023-04-25T08:46:03;94705.31;;;13.77;35.88
48156;BME280;35568;48.104;11.782;2023-04-25T08:48:32;94705.17;;;14.17;35.55
48156;BME280;35568;48.104;11.782;2023-04-25T08:51:03;94707.61;;;13.79;35.33
48156;BME280;35568;48.104;11.782;2023-04-25T08:53:33;94709.50;;;13.26;36.18
48156;BME280;35568;48.104;11.782;2023-04-25T08:56:01;94705.40;;;13.43;37.25
48156;BME280;35568;48.104;11.782;2023-04-25T08:58:28;94704.21;;;13.04;35.65
48156;BME280;35568;48.104;11.782;2023-04-25T09:00:55;94705.84;;;12.79;35.84
48156;BME280;35568;48.104;11.782;2023-04-25T09:03:21;94707.12;;;13.62;35.79
48156;BME280;35568;48.104;11.782;2023-04-25T09:05:49;94705.40;;;14.24;35.18
48156;BME280;35568;48.104;11.782;2023-04-25T09:08:16;94703.06;;;14.83;34.68
48156;BME280;35568;48.104;11.782;2023-04-25T09:10:44;94698.26;;;14.50;33.70
48156;BME280;35568;48.104;11.782;2023-04-25T09:13:12;94702.48;;;14.81;33.86
48156;BME280;35568;48.104;11.782;2023-04-25T09:15:48;94698.29;;;15.85;32.81
48156;BME280;35568;48.104;11.782;2023-04-25T09:18:22;94700.34;;;16.54;32.08
48156;BME280;35568;48.104;11.782;2023-04-25T09:20:50;94701.44;;;16.41;31.80
48156;BME280;35568;48.104;11.782;2023-04-25T09:23:19;94706.94;;;16.14;30.61
48156;BME280;35568;48.104;11.782;2023-04-25T09:25:48;94706.49;;;15.24;31.92
48156;BME280;35568;48.104;11.782;2023-04-25T09:28:15;94707.48;;;14.62;32.70
48156;BME280;35568;48.104;11.782;2023-04-25T09:30:46;94705.18;;;14.35;33.36
48156;BME280;35568;48.104;11.782;2023-04-25T09:33:12;94707.23;;;15.15;31.68
48156;BME280;35568;48.104;11.782;2023-04-25T09:35:41;94706.83;;;15.90;31.60
48156;BME280;35568;48.104;11.782;2023-04-25T09:38:10;94703.80;;;15.96;30.22
48156;BME280;35568;48.104;11.782;2023-04-25T09:40:40;94699.22;;;16.20;29.69
48156;BME280;35568;48.104;11.782;2023-04-25T09:43:09;94706.19;;;16.24;29.84
48156;BME280;35568;48.104;11.782;2023-04-25T09:45:41;94703.77;;;15.02;29.99
48156;BME280;35568;48.104;11.782;2023-04-25T09:48:08;94712.86;;;14.91;31.58
48156;BME280;35568;48.104;11.782;2023-04-25T09:50:35;94715.89;;;14.33;31.42
48156;BME280;35568;48.104;11.782;2023-04-25T09:53:03;94720.87;;;13.66;32.92
48156;BME280;35568;48.104;11.782;2023-04-25T09:55:32;94719.56;;;13.05;33.49
48156;BME280;35568;48.104;11.782;2023-04-25T09:58:04;94721.35;;;12.70;34.13
48156;BME280;35568;48.104;11.782;2023-04-25T10:00:32;94718.87;;;12.77;34.65
48156;BME280;35568;48.104;11.782;2023-04-25T10:03:01;94722.18;;;12.70;34.11
48156;BME280;35568;48.104;11.782;2023-04-25T10:05:30;94719.45;;;13.37;33.91
48156;BME280;35568;48.104;11.782;2023-04-25T10:08:00;94717.78;;;14.45;31.68
48156;BME280;35568;48.104;11.782;2023-04-25T10:10:29;94706.39;;;15.58;29.64
48156;BME280;35568;48.104;11.782;2023-04-25T10:12:58;94703.21;;;16.23;29.63
48156;BME280;35568;48.104;11.782;2023-04-25T10:15:25;94704.82;;;17.40;29.65
48156;BME280;35568;48.104;11.782;2023-04-25T10:17:52;94700.59;;;17.52;27.51
48156;BME280;35568;48.104;11.782;2023-04-25T10:20:19;94703.33;;;17.45;27.62
48156;BME280;35568;48.104;11.782;2023-04-25T10:22:47;94709.35;;;16.26;27.56
48156;BME280;35568;48.104;11.782;2023-04-25T10:25:14;94703.50;;;15.93;27.96
48156;BME280;35568;48.104;11.782;2023-04-25T10:27:41;94697.09;;;15.97;27.96
48156;BME280;35568;48.104;11.782;2023-04-25T10:30:09;94694.00;;;16.55;27.70
48156;BME280;35568;48.104;11.782;2023-04-25T10:32:37;94696.71;;;16.19;27.09
48156;BME280;35568;48.104;11.782;2023-04-25T10:35:13;94694.76;;;16.12;28.03
48156;BME280;35568;48.104;11.782;2023-04-25T10:37:57;94689.12;;;15.25;28.51
48156;BME280;35568;48.104;11.782;2023-04-25T10:40:23;94691.41;;;14.68;30.05
48156;BME280;35568;48.104;11.782;2023-04-25T10:42:51;94691.90;;;15.57;30.27
48156;BME280;35568;48.104;11.782;2023-04-25T10:45:20;94688.45;;;16.13;28.98
48156;BME280;35568;48.104;11.782;2023-04-25T10:47:47;94690.56;;;16.31;28.95
48156;BME280;35568;48.104;11.782;2023-04-25T10:50:15;94693.21;;;16.62;27.60
48156;BME280;35568;48.104;11.782;2023-04-25T10:52:42;94689.91;;;17.70;27.98
48156;BME280;35568;48.104;11.782;2023-04-25T10:55:09;94690.50;;;17.02;26.96
48156;BME280;35568;48.104;11.782;2023-04-25T10:57:39;94691.31;;;17.78;25.32
48156;BME280;35568;48.104;11.782;2023-04-25T11:00:09;94700.78;;;17.20;26.29
48156;BME280;35568;48.104;11.782;2023-04-25T11:02:37;94705.35;;;15.10;28.02
48156;BME280;35568;48.104;11.782;2023-04-25T11:05:05;94717.83;;;14.31;30.33
48156;BME280;35568;48.104;11.782;2023-04-25T11:07:38;94732.47;;;12.91;34.91
48156;BME280;35568;48.104;11.782;2023-04-25T11:10:06;94751.98;;;11.27;38.58
48156;BME280;35568;48.104;11.782;2023-04-25T11:12:33;94762.78;;;10.79;41.74
48156;BME280;35568;48.104;11.782;2023-04-25T11:15:01;94776.33;;;9.43;42.83
48156;BME280;35568;48.104;11.782;2023-04-25T11:17:29;94774.60;;;9.02;44.04
48156;BME280;35568;48.104;11.782;2023-04-25T11:19:55;94780.56;;;8.81;45.64
48156;BME280;35568;48.104;11.782;2023-04-25T11:22:23;94777.54;;;9.24;46.72
48156;BME280;35568;48.104;11.782;2023-04-25T11:24:50;94774.12;;;9.72;46.73
48156;BME280;35568;48.104;11.782;2023-04-25T11:27:17;94774.70;;;9.77;46.43
48156;BME280;35568;48.104;11.782;2023-04-25T11:29:44;94778.54;;;10.11;46.79
48156;BME280;35568;48.104;11.782;2023-04-25T11:32:10;94785.19;;;10.46;46.37
48156;BME280;35568;48.104;11.782;2023-04-25T11:34:37;94789.29;;;10.82;45.96
48156;BME280;35568;48.104;11.782;2023-04-25T11:37:04;94789.30;;;10.76;47.00
48156;BME280;35568;48.104;11.782;2023-04-25T11:39:31;94794.64;;;10.34;47.20
48156;BME280;35568;48.104;11.782;2023-04-25T11:41:58;94795.48;;;10.39;45.34
48156;BME280;35568;48.104;11.782;2023-04-25T11:44:25;94805.79;;;10.12;47.99
48156;BME280;35568;48.104;11.782;2023-04-25T11:46:52;94799.48;;;9.96;45.10
48156;BME280;35568;48.104;11.782;2023-04-25T11:49:19;94821.98;;;9.67;43.95
48156;BME280;35568;48.104;11.782;2023-04-25T11:51:47;94822.41;;;9.49;46.49
48156;BME280;35568;48.104;11.782;2023-04-25T11:54:15;94827.31;;;9.12;48.28
48156;BME280;35568;48.104;11.782;2023-04-25T11:56:43;94833.49;;;7.98;50.78
48156;BME280;35568;48.104;11.782;2023-04-25T11:59:10;94837.57;;;8.44;49.91
48156;BME280;35568;48.104;11.782;2023-04-25T12:01:40;94839.50;;;8.56;50.24
48156;BME280;35568;48.104;11.782;2023-04-25T12:04:11;94835.59;;;8.41;50.51
48156;BME280;35568;48.104;11.782;2023-04-25T12:06:40;94841.59;;;8.27;50.40
48156;BME280;35568;48.104;11.782;2023-04-25T12:09:09;94839.58;;;8.64;50.81
48156;BME280;35568;48.104;11.782;2023-04-25T12:11:45;94837.83;;;8.65;49.55
48156;BME280;35568;48.104;11.782;2023-04-25T12:14:12;94841.01;;;8.91;48.89
48156;BME280;35568;48.104;11.782;2023-04-25T12:16:48;94845.77;;;8.26;50.08
48156;BME280;35568;48.104;11.782;2023-04-25T12:19:16;94843.98;;;8.54;49.82
48156;BME280;35568;48.104;11.782;2023-04-25T12:21:44;94846.10;;;8.52;49.37
48156;BME280;35568;48.104;11.782;2023-04-25T12:24:12;94850.91;;;8.22;48.78
48156;BME280;35568;48.104;11.782;2023-04-25T12:26:48;94848.45;;;7.90;49.76
48156;BME280;35568;48.104;11.782;2023-04-25T12:29:17;94852.95;;;7.77;50.28
48156;BME280;35568;48.104;11.782;2023-04-25T12:31:44;94849.59;;;7.86;50.49
48156;BME280;35568;48.104;11.782;2023-04-25T12:34:11;94850.60;;;8.27;50.38
48156;BME280;35568;48.104;11.782;2023-04-25T12:36:38;94846.49;;;8.83;49.39
48156;BME280;35568;48.104;11.782;2023-04-25T12:39:05;94844.91;;;9.00;48.81
48156;BME280;35568;48.104;11.782;2023-04-25T12:41:32;94847.97;;;8.76;48.81
48156;BME280;35568;48.104;11.782;2023-04-25T12:43:58;94852.26;;;8.39;49.52
48156;BME280;35568;48.104;11.782;2023-04-25T12:46:25;94852.51;;;8.16;51.27
48156;BME280;35568;48.104;11.782;2023-04-25T12:48:53;94855.30;;;8.52;50.78
48156;BME280;35568;48.104;11.782;2023-04-25T12:51:20;94853.47;;;8.59;51.64
48156;BME280;35568;48.104;11.782;2023-04-25T12:53:47;94855.10;;;8.84;50.71
48156;BME280;35568;48.104;11.782;2023-04-25T12:56:14;94856.00;;;8.64;51.14
48156;BME280;35568;48.104;11.782;2023-04-25T12:58:40;94851.35;;;9.22;50.12
48156;BME280;35568;48.104;11.782;2023-04-25T13:01:07;94854.18;;;9.39;49.27